createdAt,value
2016-03-21T00:00:13.004Z,1007.87
2016-03-21T00:03:22.981Z,1007.91
2016-03-21T00:06:34.879Z,1007.83
2016-03-21T00:09:50.610Z,1007.93
2016-03-21T00:12:53.414Z,1008
2016-03-21T00:16:05.126Z,1008
2016-03-21T00:19:16.962Z,1008.04
2016-03-21T00:22:26.813Z,1008.04
2016-03-21T00:25:35.071Z,1007.95
2016-03-21T00:28:48.692Z,1007.95
2016-03-21T00:31:51.465Z,1008.04
2016-03-21T00:35:02.817Z,1008.14
2016-03-21T00:38:14.622Z,1008
2016-03-21T00:41:26.130Z,1008.04
2016-03-21T00:44:34.810Z,1008.1
2016-03-21T00:47:50.399Z,1008.04
2016-03-21T00:50:53.220Z,1008.02
2016-03-21T00:54:04.196Z,1008.04
2016-03-21T00:57:15.954Z,1007.98
2016-03-21T01:00:27.665Z,1007.95
2016-03-21T01:03:37.595Z,1007.95
2016-03-21T01:06:48.919Z,1007.81
2016-03-21T01:09:58.771Z,1007.95
2016-03-21T01:13:10.982Z,1007.95
2016-03-21T01:16:22.380Z,1007.98
2016-03-21T01:19:30.951Z,1007.85
2016-03-21T01:22:44.210Z,1007.75
2016-03-21T01:25:50.937Z,1007.83
2016-03-21T01:28:53.743Z,1007.83
2016-03-21T01:32:02.409Z,1007.93
2016-03-21T01:35:14.073Z,1007.98
2016-03-21T01:38:23.237Z,1007.89
2016-03-21T01:41:34.683Z,1008.02
2016-03-21T01:44:48.222Z,1007.95
2016-03-21T01:47:50.917Z,1007.93
2016-03-21T01:51:02.725Z,1007.89
2016-03-21T01:54:11.358Z,1007.93
2016-03-21T01:57:21.413Z,1008.02
2016-03-21T02:00:33.281Z,1007.95
2016-03-21T02:03:47.554Z,1007.95
2016-03-21T02:06:50.265Z,1008.02
2016-03-21T02:10:02.071Z,1007.89
2016-03-21T02:13:12.097Z,1007.95
2016-03-21T02:16:21.887Z,1007.89
2016-03-21T02:19:33.645Z,1008.04
2016-03-21T02:22:46.105Z,1008.22
2016-03-21T02:25:48.926Z,1008
2016-03-21T02:29:00.684Z,1008.04
2016-03-21T02:32:12.101Z,1008.12
2016-03-21T02:35:23.375Z,1008.08
2016-03-21T02:38:34.915Z,1008.1
2016-03-21T02:41:50.485Z,1007.97
2016-03-21T02:44:53.164Z,1007.91
2016-03-21T02:48:04.926Z,1007.85
2016-03-21T02:51:12.933Z,1007.89
2016-03-21T02:54:23.097Z,1007.95
2016-03-21T02:57:33.091Z,1007.81
2016-03-21T03:00:48.552Z,1007.83
2016-03-21T03:03:51.419Z,1007.79
2016-03-21T03:07:01.494Z,1007.75
2016-03-21T03:10:13.015Z,1007.77
2016-03-21T03:13:24.726Z,1007.81
2016-03-21T03:16:33.672Z,1007.81
2016-03-21T03:19:49.508Z,1007.79
2016-03-21T03:22:52.344Z,1007.97
2016-03-21T03:26:01.461Z,1007.97
2016-03-21T03:29:11.425Z,1007.89
2016-03-21T03:32:23.153Z,1007.83
2016-03-21T03:35:34.739Z,1007.87
2016-03-21T03:38:46.794Z,1007.85
2016-03-21T03:41:49.488Z,1007.87
2016-03-21T03:45:01.403Z,1008
2016-03-21T03:48:12.914Z,1007.93
2016-03-21T03:51:24.468Z,1007.91
2016-03-21T03:54:36.461Z,1007.93
2016-03-21T03:57:51.548Z,1007.97
2016-03-21T04:00:54.353Z,1007.89
2016-03-21T04:04:06.160Z,1007.87
2016-03-21T04:07:17.825Z,1007.89
2016-03-21T04:10:29.222Z,1007.97
2016-03-21T04:13:44.778Z,1007.83
2016-03-21T04:16:51.646Z,1007.83
2016-03-21T04:19:53.310Z,1007.83
2016-03-21T04:23:06.305Z,1007.83
2016-03-21T04:26:14.985Z,1007.79
2016-03-21T04:29:26.774Z,1007.81
2016-03-21T04:32:36.438Z,1007.73
2016-03-21T04:35:50.665Z,1007.85
2016-03-21T04:38:53.533Z,1007.77
2016-03-21T04:42:04.762Z,1007.77
2016-03-21T04:45:16.411Z,1007.69
2016-03-21T04:48:26.341Z,1007.73
2016-03-21T04:51:38.052Z,1007.77
2016-03-21T04:54:49.654Z,1007.81
2016-03-21T04:58:01.193Z,1007.65
2016-03-21T05:01:13.220Z,1007.73
2016-03-21T05:04:25.212Z,1007.71
2016-03-21T05:07:35.798Z,1007.73
2016-03-21T05:10:52.494Z,1007.79
2016-03-21T05:13:55.564Z,1007.85
2016-03-21T05:17:07.371Z,1007.75
2016-03-21T05:20:15.754Z,1007.75
2016-03-21T05:23:27.607Z,1007.81
2016-03-21T05:26:37.412Z,1007.81
2016-03-21T05:29:52.998Z,1007.89
2016-03-21T05:32:55.912Z,1007.79
2016-03-21T05:36:05.657Z,1007.85
2016-03-21T05:39:17.540Z,1007.87
2016-03-21T05:42:29.330Z,1007.89
2016-03-21T05:45:38.275Z,1007.81
2016-03-21T05:48:51.987Z,1007.89
2016-03-21T05:51:55.042Z,1007.81
2016-03-21T05:55:06.677Z,1007.73
2016-03-21T05:58:17.654Z,1007.85
2016-03-21T06:01:30.599Z,1007.89
2016-03-21T06:04:46.389Z,1007.81
2016-03-21T06:07:49.256Z,1007.87
2016-03-21T06:10:57.828Z,1007.83
2016-03-21T06:14:09.759Z,1007.81
2016-03-21T06:17:21.627Z,1007.79
2016-03-21T06:20:29.994Z,1007.77
2016-03-21T06:23:45.893Z,1007.69
2016-03-21T06:26:52.949Z,1007.75
2016-03-21T06:29:56.066Z,1007.73
2016-03-21T06:33:07.982Z,1007.65
2016-03-21T06:36:19.756Z,1007.65
2016-03-21T06:39:31.670Z,1007.61
2016-03-21T06:42:45.506Z,1007.65
2016-03-21T06:45:52.530Z,1007.67
2016-03-21T06:48:55.414Z,1007.65
2016-03-21T06:52:07.175Z,1007.69
2016-03-21T06:55:18.292Z,1007.63
2016-03-21T06:58:30.003Z,1007.59
2016-03-21T07:01:45.932Z,1007.51
2016-03-21T07:04:48.987Z,1007.49
2016-03-21T07:08:00.800Z,1007.67
2016-03-21T07:11:15.405Z,1007.57
2016-03-21T07:14:23.100Z,1007.49
2016-03-21T07:17:34.172Z,1007.43
2016-03-21T07:20:48.430Z,1007.57
2016-03-21T07:23:51.187Z,1007.45
2016-03-21T07:27:00.398Z,1007.53
2016-03-21T07:30:11.924Z,1007.33
2016-03-21T07:33:23.042Z,1007.31
2016-03-21T07:36:34.706Z,1007.37
2016-03-21T07:39:49.496Z,1007.45
2016-03-21T07:42:52.457Z,1007.39
2016-03-21T07:46:03.973Z,1007.37
2016-03-21T07:49:15.459Z,1007.39
2016-03-21T07:52:26.526Z,1007.43
2016-03-21T07:55:37.974Z,1007.39
2016-03-21T07:58:55.226Z,1007.43
2016-03-21T08:01:55.075Z,1007.51
2016-03-21T08:05:05.612Z,1007.43
2016-03-21T08:08:18.685Z,1007.43
2016-03-21T08:11:29.380Z,1007.49
2016-03-21T08:14:38.327Z,1007.51
2016-03-21T08:17:49.803Z,1007.53
2016-03-21T08:20:59.170Z,1007.41
2016-03-21T08:24:08.947Z,1007.53
2016-03-21T08:27:20.486Z,1007.53
2016-03-21T08:30:32.353Z,1007.61
2016-03-21T08:33:45.127Z,1007.55
2016-03-21T08:36:51.917Z,1007.47
2016-03-21T08:39:55.081Z,1007.53
2016-03-21T08:43:05.573Z,1007.43
2016-03-21T08:46:16.475Z,1007.39
2016-03-21T08:49:29.951Z,1007.37
2016-03-21T08:52:45.428Z,1007.27
2016-03-21T08:55:52.436Z,1007.35
2016-03-21T08:58:55.461Z,1007.21
2016-03-21T09:02:07.531Z,1007.15
2016-03-21T09:05:19.604Z,1007.05
2016-03-21T09:08:31.644Z,1007.07
2016-03-21T09:11:47.652Z,1006.99
2016-03-21T09:14:50.714Z,1007.01
2016-03-21T09:18:00.611Z,1006.99
2016-03-21T09:21:12.200Z,1006.95
2016-03-21T09:24:23.991Z,1006.97
2016-03-21T09:27:35.982Z,1006.87
2016-03-21T09:30:52.006Z,1006.91
2016-03-21T09:33:55.076Z,1006.71
2016-03-21T09:37:05.429Z,1006.81
2016-03-21T09:40:14.033Z,1006.83
2016-03-21T09:43:23.525Z,1006.54
2016-03-21T09:46:33.534Z,1006.63
2016-03-21T09:49:49.261Z,1006.63
2016-03-21T09:52:52.019Z,1006.91
2016-03-21T09:56:02.277Z,1006.93
2016-03-21T09:59:12.163Z,1007.01
2016-03-21T10:02:23.717Z,1007.01
2016-03-21T10:05:34.709Z,1007.05
2016-03-21T10:08:47.687Z,1007.19
2016-03-21T10:11:50.696Z,1007.03
2016-03-21T10:15:02.500Z,1006.93
2016-03-21T10:18:14.292Z,1006.87
2016-03-21T10:21:23.801Z,1006.73
2016-03-21T10:24:35.949Z,1006.81
2016-03-21T10:27:51.426Z,1006.75
2016-03-21T10:30:54.402Z,1006.71
2016-03-21T10:34:06.254Z,1006.71
2016-03-21T10:37:17.094Z,1006.67
2016-03-21T10:40:29.039Z,1006.67
2016-03-21T10:43:44.734Z,1006.67
2016-03-21T10:46:51.665Z,1006.57
2016-03-21T10:49:54.595Z,1006.59
2016-03-21T10:53:05.071Z,1006.54
2016-03-21T10:56:16.941Z,1006.48
2016-03-21T10:59:25.075Z,1006.61
2016-03-21T11:02:37.786Z,1006.75
2016-03-21T11:05:49.341Z,1006.83
2016-03-21T11:08:59.606Z,1006.75
2016-03-21T11:12:11.696Z,1006.5
2016-03-21T11:15:20.407Z,1006.5
2016-03-21T11:18:31.632Z,1006.54
2016-03-21T11:21:47.157Z,1006.57
2016-03-21T11:24:50.024Z,1006.55
2016-03-21T11:28:01.626Z,1006.55
2016-03-21T11:31:12.087Z,1006.3
2016-03-21T11:34:23.968Z,1006.34
2016-03-21T11:37:34.751Z,1006.28
2016-03-21T11:40:51.946Z,1006.16
2016-03-21T11:43:55.095Z,1006.1
2016-03-21T11:47:06.931Z,1006.1
2016-03-21T11:50:16.552Z,1006.2
2016-03-21T11:53:28.325Z,1006.12
2016-03-21T11:56:36.724Z,1006.1
2016-03-21T11:59:52.169Z,1005.72
2016-03-21T12:02:55.225Z,1005.88
2016-03-21T12:06:03.467Z,1005.76
2016-03-21T12:09:15.356Z,1005.8
2016-03-21T12:12:27.146Z,1005.76
2016-03-21T12:15:37.529Z,1005.6
2016-03-21T12:18:49.491Z,1005.76
2016-03-21T12:21:59.374Z,1005.86
2016-03-21T12:25:11.446Z,1005.72
2016-03-21T12:28:21.048Z,1005.5
2016-03-21T12:31:30.322Z,1005.54
2016-03-21T12:34:37.830Z,1005.58
2016-03-21T12:37:51.354Z,1005.54
2016-03-21T12:41:03.205Z,1005.64
2016-03-21T12:44:15.091Z,1005.74
2016-03-21T12:47:26.630Z,1005.64
2016-03-21T12:50:38.138Z,1005.68
2016-03-21T12:53:48.334Z,1005.5
2016-03-21T12:57:01.154Z,1005.6
2016-03-21T13:00:12.603Z,1005.64
2016-03-21T13:03:24.237Z,1005.68
2016-03-21T13:06:36.093Z,1005.8
2016-03-21T13:09:50.731Z,1005.94
2016-03-21T13:12:53.598Z,1005.92
2016-03-21T13:16:05.590Z,1005.72
2016-03-21T13:19:17.460Z,1005.66
2016-03-21T13:22:29.218Z,1005.52
2016-03-21T13:25:44.961Z,1005.54
2016-03-21T13:28:51.828Z,1005.48
2016-03-21T13:31:54.758Z,1005.48
2016-03-21T13:35:06.657Z,1005.42
2016-03-21T13:38:18.746Z,1005.36
2016-03-21T13:41:30.816Z,1005.36
2016-03-21T13:44:39.324Z,1005.28
2016-03-21T13:47:51.349Z,1005.26
2016-03-21T13:51:00.138Z,1005.16
2016-03-21T13:54:09.630Z,1005.12
2016-03-21T13:57:21.391Z,1005.22
2016-03-21T14:00:29.945Z,1005.22
2016-03-21T14:03:45.595Z,1005.36
2016-03-21T14:06:52.389Z,1005.24
2016-03-21T14:09:55.491Z,1005.2
2016-03-21T14:13:07.186Z,1005.16
2016-03-21T14:16:15.666Z,1005
2016-03-21T14:19:28.829Z,1005.1
2016-03-21T14:22:44.587Z,1005.18
2016-03-21T14:25:51.517Z,1005.16
2016-03-21T14:28:54.432Z,1005.1
2016-03-21T14:32:04.925Z,1005.26
2016-03-21T14:35:16.466Z,1005.16
2016-03-21T14:38:25.460Z,1005.1
2016-03-21T14:41:36.421Z,1005.22
2016-03-21T14:44:51.679Z,1005.24
2016-03-21T14:47:54.546Z,1005.36
2016-03-21T14:51:06.084Z,1005.42
2016-03-21T14:54:17.940Z,1005.32
2016-03-21T14:57:26.620Z,1005.44
2016-03-21T15:00:35.878Z,1005.26
2016-03-21T15:03:49.089Z,1005.32
2016-03-21T15:06:51.956Z,1005.34
2016-03-21T15:10:02.230Z,1005.3
2016-03-21T15:13:13.881Z,1005.26
2016-03-21T15:16:25.357Z,1005.26
2016-03-21T15:19:36.101Z,1005.24
2016-03-21T15:22:51.843Z,1005.22
2016-03-21T15:25:54.851Z,1005.22
2016-03-21T15:29:06.750Z,1005.1
2016-03-21T15:32:18.651Z,1005.12
2016-03-21T15:35:29.847Z,1005.1
2016-03-21T15:38:44.277Z,1004.96
2016-03-21T15:41:51.097Z,1005
2016-03-21T15:44:54.121Z,1005.04
2016-03-21T15:48:05.832Z,1005.1
2016-03-21T15:51:17.951Z,1005.14
2016-03-21T15:54:29.992Z,1005.26
2016-03-21T15:57:45.640Z,1005.22
2016-03-21T16:00:52.555Z,1005.12
2016-03-21T16:03:55.641Z,1005.14
2016-03-21T16:07:07.259Z,1005.18
2016-03-21T16:10:17.441Z,1005.18
2016-03-21T16:13:29.011Z,1005.18
2016-03-21T16:16:44.066Z,1005.2
2016-03-21T16:19:50.840Z,1005.16
2016-03-21T16:22:53.614Z,1005.06
2016-03-21T16:26:02.168Z,1005.22
2016-03-21T16:29:12.145Z,1005.14
2016-03-21T16:32:24.031Z,1005.16
2016-03-21T16:35:35.992Z,1005.12
2016-03-21T16:38:51.876Z,1005.06
2016-03-21T16:41:54.822Z,1005.1
2016-03-21T16:45:06.688Z,1005.12
2016-03-21T16:48:18.169Z,1005.1
2016-03-21T16:51:29.778Z,1005.1
2016-03-21T16:54:45.481Z,1005.2
2016-03-21T16:57:52.367Z,1005.16
2016-03-21T17:00:55.141Z,1005.08
2016-03-21T17:04:06.908Z,1005.12
2016-03-21T17:07:18.866Z,1005.04
2016-03-21T17:10:30.106Z,1005
2016-03-21T17:13:45.521Z,1004.9
2016-03-21T17:16:52.294Z,1004.9
2016-03-21T17:19:55.005Z,1004.88
2016-03-21T17:23:04.576Z,1004.9
2016-03-21T17:26:15.492Z,1004.82
2016-03-21T17:32:38.586Z,1004.94
2016-03-21T17:35:50.142Z,1004.94
2016-03-21T17:39:02.153Z,1004.94
2016-03-21T17:42:10.645Z,1004.94
2016-03-21T17:45:22.418Z,1004.94
2016-03-21T17:48:34.146Z,1004.96
2016-03-21T17:51:49.888Z,1005.04
2016-03-21T17:54:52.724Z,1004.96
2016-03-21T17:58:04.501Z,1004.96
2016-03-21T18:01:15.961Z,1005.08
2016-03-21T18:04:26.267Z,1005
2016-03-21T18:07:38.170Z,1005.02
2016-03-21T18:10:53.836Z,1005.1
2016-03-21T18:13:56.687Z,1004.96
2016-03-21T18:17:07.682Z,1005.06
2016-03-21T18:20:17.877Z,1005.24
2016-03-21T18:23:25.807Z,1005.24
2016-03-21T18:26:37.238Z,1005.26
2016-03-21T18:29:50.262Z,1005.26
2016-03-21T18:32:53.081Z,1005.18
2016-03-21T18:36:04.608Z,1005.26
2016-03-21T18:39:16.272Z,1005.3
2016-03-21T18:42:26.047Z,1005.2
2016-03-21T18:45:37.758Z,1005.18
2016-03-21T18:48:53.093Z,1005.1
2016-03-21T18:51:55.789Z,1005.2
2016-03-21T18:55:07.284Z,1005.22
2016-03-21T18:58:15.839Z,1005.22
2016-03-21T19:01:27.456Z,1005.08
2016-03-21T19:04:38.917Z,1005.04
2016-03-21T19:07:50.350Z,1005.14
2016-03-21T19:11:02.016Z,1005.12
2016-03-21T19:14:12.556Z,1005.06
2016-03-21T19:17:25.548Z,1005.14
2016-03-21T19:20:35.337Z,1005.26
2016-03-21T19:23:50.440Z,1005.14
2016-03-21T19:26:53.103Z,1005.04
2016-03-21T19:30:04.895Z,1005.08
2016-03-21T19:33:14.575Z,1005.14
2016-03-21T19:36:26.286Z,1005.08
2016-03-21T19:39:37.982Z,1005.18
2016-03-21T19:42:50.568Z,1005.1
2016-03-21T19:45:53.545Z,1005.1
2016-03-21T19:49:05.104Z,1005.12
2016-03-21T19:52:16.721Z,1005.1
2016-03-21T19:55:25.651Z,1005.14
2016-03-21T19:58:38.596Z,1005.18
2016-03-21T20:01:53.947Z,1005.18
2016-03-21T20:04:56.877Z,1005.1
2016-03-21T20:08:07.209Z,1005.16
2016-03-21T20:11:18.452Z,1005.2
2016-03-21T20:14:29.163Z,1005.2
2016-03-21T20:17:44.718Z,1005.16
2016-03-21T20:20:51.429Z,1005.18
2016-03-21T20:23:54.218Z,1005.16
2016-03-21T20:27:06.166Z,1005.12
2016-03-21T20:30:18.017Z,1005.12
2016-03-21T20:33:26.167Z,1005.18
2016-03-21T20:36:37.300Z,1005.12
2016-03-21T20:39:50.792Z,1005.12
2016-03-21T20:42:53.738Z,1004.98
2016-03-21T20:46:05.233Z,1004.98
2016-03-21T20:49:16.964Z,1005.04
2016-03-21T20:52:27.284Z,1005
2016-03-21T20:55:36.887Z,1004.88
2016-03-21T20:58:52.364Z,1004.92
2016-03-21T21:01:55.011Z,1004.92
2016-03-21T21:05:06.664Z,1004.98
2016-03-21T21:08:14.906Z,1004.9
2016-03-21T21:11:24.289Z,1004.92
2016-03-21T21:14:33.938Z,1004.98
2016-03-21T21:17:49.634Z,1004.88
2016-03-21T21:20:52.329Z,1004.92
2016-03-21T21:24:01.790Z,1004.88
2016-03-21T21:27:13.348Z,1004.98
2016-03-21T21:30:21.934Z,1004.96
2016-03-21T21:33:33.661Z,1004.96
2016-03-21T21:36:49.388Z,1005.02
2016-03-21T21:39:51.349Z,1004.88
2016-03-21T21:43:04.531Z,1004.86
2016-03-21T21:46:16.602Z,1004.84
2016-03-21T21:49:26.735Z,1004.86
2016-03-21T21:52:38.571Z,1004.86
2016-03-21T21:55:53.987Z,1004.82
2016-03-21T21:58:56.790Z,1004.71
2016-03-21T22:02:06.286Z,1004.82
2016-03-21T22:05:18.122Z,1004.71
2016-03-21T22:08:27.755Z,1004.8
2016-03-21T22:11:37.060Z,1004.57
2016-03-21T22:14:52.818Z,1004.67
2016-03-21T22:17:55.670Z,1004.69
2016-03-21T22:21:07.431Z,1004.73
2016-03-21T22:24:18.142Z,1004.75
2016-03-21T22:27:31.103Z,1004.71
2016-03-21T22:30:39.393Z,1004.57
2016-03-21T22:33:51.057Z,1004.55
2016-03-21T22:37:02.737Z,1004.47
2016-03-21T22:40:14.153Z,1004.53
2016-03-21T22:43:22.693Z,1004.55
2016-03-21T22:46:32.482Z,1004.63
2016-03-21T22:49:48.302Z,1004.61
2016-03-21T22:52:51.185Z,1004.55
2016-03-21T22:56:02.944Z,1004.49
2016-03-21T22:59:14.768Z,1004.51
2016-03-21T23:02:24.166Z,1004.47
2016-03-21T23:05:36.017Z,1004.49
2016-03-21T23:08:49.456Z,1004.47
2016-03-21T23:11:52.307Z,1004.43
2016-03-21T23:15:03.924Z,1004.45
2016-03-21T23:18:15.701Z,1004.43
2016-03-21T23:21:27.646Z,1004.49
2016-03-21T23:24:35.529Z,1004.63
2016-03-21T23:27:52.787Z,1004.57
2016-03-21T23:30:55.624Z,1004.67
2016-03-21T23:34:05.009Z,1004.53
2016-03-21T23:37:15.440Z,1004.49
2016-03-21T23:40:24.011Z,1004.51
2016-03-21T23:43:35.784Z,1004.43
2016-03-21T23:46:51.433Z,1004.59
2016-03-21T23:49:54.472Z,1004.63
2016-03-21T23:53:06.155Z,1004.41
2016-03-21T23:56:16.365Z,1004.49
2016-03-21T23:59:28.108Z,1004.47
